sensor_id;sensor_type;location;lat;lon;timestamp;pressure;altitude;pressure_sealevel;temperature;humidity
596;BME280;19946;49.306;11.350;2023-03-11T00:24:29;94759.22;;;-1.08;100.00
596;BME280;19946;49.306;11.350;2023-03-11T00:27:31;94873.50;;;-0.43;100.00
596;BME280;19946;49.306;11.350;2023-03-11T00:30:33;94913.47;;;-0.07;100.00
596;BME280;19946;49.306;11.350;2023-03-11T00:33:38;94848.00;;;-0.54;100.00
596;BME280;19946;49.306;11.350;2023-03-11T00:36:43;94923.38;;;-0.03;100.00
596;BME280;19946;49.306;11.350;2023-03-11T00:43:06;94868.94;;;-0.51;100.00
596;BME280;19946;49.306;11.350;2023-03-11T00:59:45;94843.78;;;-0.93;100.00
596;BME280;19946;49.306;11.350;2023-03-11T02:02:19;94996.13;;;-1.19;100.00
596;BME280;19946;49.306;11.350;2023-03-11T06:39:36;95321.03;;;-1.60;100.00
596;BME280;19946;49.306;11.350;2023-03-11T06:42:38;95107.16;;;-2.99;100.00
596;BME280;19946;49.306;11.350;2023-03-11T06:45:43;95098.47;;;-3.10;100.00
596;BME280;19946;49.306;11.350;2023-03-11T06:48:53;95126.91;;;-3.05;100.00
596;BME280;19946;49.306;11.350;2023-03-11T06:51:55;95008.69;;;-3.68;100.00
596;BME280;19946;49.306;11.350;2023-03-11T06:54:55;95247.75;;;-2.43;100.00
596;BME280;19946;49.306;11.350;2023-03-11T06:57:56;95277.53;;;-2.15;100.00
596;BME280;19946;49.306;11.350;2023-03-11T07:27:56;95212.66;;;-2.66;100.00
596;BME280;19946;49.306;11.350;2023-03-11T07:30:56;95291.63;;;-2.09;100.00
596;BME280;19946;49.306;11.350;2023-03-11T07:37:15;95202.09;;;-2.90;100.00
596;BME280;19946;49.306;11.350;2023-03-11T07:43:38;95412.31;;;-1.27;100.00
596;BME280;19946;49.306;11.350;2023-03-11T07:46:40;95414.81;;;-1.41;100.00
596;BME280;19946;49.306;11.350;2023-03-11T08:06:16;95451.78;;;-0.76;100.00
596;BME280;19946;49.306;11.350;2023-03-11T08:09:18;95397.09;;;-0.97;100.00
596;BME280;19946;49.306;11.350;2023-03-11T08:12:24;95450.34;;;-0.80;100.00
596;BME280;19946;49.306;11.350;2023-03-11T08:15:27;95452.75;;;-0.62;100.00
596;BME280;19946;49.306;11.350;2023-03-11T08:18:33;95454.25;;;-0.74;100.00
596;BME280;19946;49.306;11.350;2023-03-11T08:32:22;95483.38;;;-1.09;100.00
596;BME280;19946;49.306;11.350;2023-03-11T08:35:24;95399.16;;;-1.80;100.00
596;BME280;19946;49.306;11.350;2023-03-11T08:38:26;95492.53;;;-1.23;100.00
596;BME280;19946;49.306;11.350;2023-03-11T08:41:31;95429.44;;;-1.62;100.00
596;BME280;19946;49.306;11.350;2023-03-11T08:45:00;95509.25;;;-1.03;100.00
596;BME280;19946;49.306;11.350;2023-03-11T08:48:00;95440.41;;;-1.14;100.00
596;BME280;19946;49.306;11.350;2023-03-11T08:51:01;95450.88;;;-0.89;100.00
596;BME280;19946;49.306;11.350;2023-03-11T08:54:03;95506.75;;;-0.43;100.00
596;BME280;19946;49.306;11.350;2023-03-11T09:00:25;95431.63;;;-0.49;100.00
596;BME280;19946;49.306;11.350;2023-03-11T09:03:34;95522.75;;;-0.11;100.00
596;BME280;19946;49.306;11.350;2023-03-11T09:06:41;95474.09;;;-0.35;100.00
596;BME280;19946;49.306;11.350;2023-03-11T09:09:43;95527.22;;;-0.01;100.00
596;BME280;19946;49.306;11.350;2023-03-11T09:13:01;95527.41;;;0.25;100.00
596;BME280;19946;49.306;11.350;2023-03-11T09:16:14;95463.22;;;-0.53;100.00
596;BME280;19946;49.306;11.350;2023-03-11T09:19:15;95469.50;;;-1.04;100.00
596;BME280;19946;49.306;11.350;2023-03-11T09:22:15;95445.56;;;-1.16;100.00
596;BME280;19946;49.306;11.350;2023-03-11T09:25:16;95488.34;;;-0.62;100.00
596;BME280;19946;49.306;11.350;2023-03-11T09:28:16;95468.34;;;-0.39;100.00
596;BME280;19946;49.306;11.350;2023-03-11T09:31:19;95475.94;;;-0.23;100.00
596;BME280;19946;49.306;11.350;2023-03-11T09:34:19;95518.50;;;0.46;100.00
596;BME280;19946;49.306;11.350;2023-03-11T09:37:24;95441.84;;;-0.20;100.00
596;BME280;19946;49.306;11.350;2023-03-11T09:40:26;95435.97;;;0.08;100.00
596;BME280;19946;49.306;11.350;2023-03-11T09:43:57;95541.13;;;1.34;100.00
596;BME280;19946;49.306;11.350;2023-03-11T09:53:44;95511.09;;;1.65;100.00
596;BME280;19946;49.306;11.350;2023-03-11T09:56:45;95512.59;;;1.94;100.00
596;BME280;19946;49.306;11.350;2023-03-11T09:59:46;95523.72;;;1.00;100.00
596;BME280;19946;49.306;11.350;2023-03-11T10:03:00;95544.97;;;0.86;100.00
596;BME280;19946;49.306;11.350;2023-03-11T10:06:46;95463.50;;;0.29;100.00
596;BME280;19946;49.306;11.350;2023-03-11T10:09:52;95549.34;;;0.70;100.00
596;BME280;19946;49.306;11.350;2023-03-11T10:13:52;95555.97;;;0.44;100.00
596;BME280;19946;49.306;11.350;2023-03-11T10:17:17;95463.84;;;-0.33;100.00
596;BME280;19946;49.306;11.350;2023-03-11T10:27:42;95517.44;;;-1.14;100.00
596;BME280;19946;49.306;11.350;2023-03-11T10:30:50;95531.69;;;-0.80;100.00
596;BME280;19946;49.306;11.350;2023-03-11T10:34:18;95592.47;;;-0.29;100.00
596;BME280;19946;49.306;11.350;2023-03-11T10:37:36;95568.50;;;0.05;100.00
596;BME280;19946;49.306;11.350;2023-03-11T10:40:42;95484.38;;;-0.22;100.00
596;BME280;19946;49.306;11.350;2023-03-11T10:43:51;95583.97;;;0.16;100.00
596;BME280;19946;49.306;11.350;2023-03-11T10:46:54;95480.03;;;-0.50;100.00
596;BME280;19946;49.306;11.350;2023-03-11T10:49:55;95546.06;;;-0.49;100.00
596;BME280;19946;49.306;11.350;2023-03-11T10:53:14;95501.28;;;-0.81;100.00
596;BME280;19946;49.306;11.350;2023-03-11T10:59:29;95604.34;;;-0.91;100.00
596;BME280;19946;49.306;11.350;2023-03-11T11:02:40;95578.34;;;-1.12;100.00
596;BME280;19946;49.306;11.350;2023-03-11T11:06:03;95563.66;;;-1.07;100.00
596;BME280;19946;49.306;11.350;2023-03-11T11:09:18;95530.00;;;-1.11;100.00
596;BME280;19946;49.306;11.350;2023-03-11T11:12:20;95597.66;;;-0.01;100.00
596;BME280;19946;49.306;11.350;2023-03-11T11:15:31;95563.94;;;-0.05;100.00
596;BME280;19946;49.306;11.350;2023-03-11T11:18:45;95561.31;;;0.11;100.00
596;BME280;19946;49.306;11.350;2023-03-11T11:21:48;95572.63;;;0.35;100.00
596;BME280;19946;49.306;11.350;2023-03-11T11:24:54;95532.06;;;0.47;100.00
596;BME280;19946;49.306;11.350;2023-03-11T11:28:07;95572.31;;;1.11;100.00
596;BME280;19946;49.306;11.350;2023-03-11T11:31:22;95565.81;;;0.93;100.00
596;BME280;19946;49.306;11.350;2023-03-11T11:34:33;95573.66;;;0.61;100.00
596;BME280;19946;49.306;11.350;2023-03-11T11:37:36;95552.88;;;0.67;100.00
596;BME280;19946;49.306;11.350;2023-03-11T11:40:41;95523.16;;;0.25;100.00
596;BME280;19946;49.306;11.350;2023-03-11T11:43:53;95531.25;;;0.32;100.00
596;BME280;19946;49.306;11.350;2023-03-11T11:46:58;95583.09;;;0.88;100.00
596;BME280;19946;49.306;11.350;2023-03-11T11:50:05;95567.44;;;0.80;100.00
596;BME280;19946;49.306;11.350;2023-03-11T11:53:27;95525.06;;;0.50;100.00
596;BME280;19946;49.306;11.350;2023-03-11T11:56:30;95586.47;;;0.88;100.00
596;BME280;19946;49.306;11.350;2023-03-11T11:59:32;95519.03;;;0.65;100.00
596;BME280;19946;49.306;11.350;2023-03-11T12:02:42;95576.56;;;1.25;100.00
596;BME280;19946;49.306;11.350;2023-03-11T12:06:15;95532.75;;;0.77;100.00
596;BME280;19946;49.306;11.350;2023-03-11T12:20:02;95534.53;;;1.44;100.00
596;BME280;19946;49.306;11.350;2023-03-11T12:26:21;95572.88;;;1.16;100.00
596;BME280;19946;49.306;11.350;2023-03-11T12:32:39;95591.66;;;0.58;100.00
596;BME280;19946;49.306;11.350;2023-03-11T12:35:54;95497.81;;;-0.34;100.00
596;BME280;19946;49.306;11.350;2023-03-11T12:38:57;95518.28;;;-0.22;100.00
596;BME280;19946;49.306;11.350;2023-03-11T12:42:14;95584.91;;;0.29;100.00
596;BME280;19946;49.306;11.350;2023-03-11T12:45:53;95589.00;;;0.31;100.00
596;BME280;19946;49.306;11.350;2023-03-11T12:49:12;95590.94;;;0.42;100.00
596;BME280;19946;49.306;11.350;2023-03-11T12:52:25;95549.28;;;0.43;100.00
596;BME280;19946;49.306;11.350;2023-03-11T12:55:32;95475.59;;;0.40;100.00
596;BME280;19946;49.306;11.350;2023-03-11T12:58:48;95512.03;;;0.55;100.00
596;BME280;19946;49.306;11.350;2023-03-11T13:02:18;95518.22;;;0.79;100.00
596;BME280;19946;49.306;11.350;2023-03-11T13:08:56;95546.53;;;1.30;100.00
596;BME280;19946;49.306;11.350;2023-03-11T13:11:58;95580.59;;;1.56;100.00
596;BME280;19946;49.306;11.350;2023-03-11T13:15:36;95578.03;;;1.29;100.00
596;BME280;19946;49.306;11.350;2023-03-11T13:18:45;95559.63;;;1.24;100.00
596;BME280;19946;49.306;11.350;2023-03-11T13:22:05;95564.66;;;1.11;100.00
596;BME280;19946;49.306;11.350;2023-03-11T13:25:36;95577.16;;;1.16;100.00
596;BME280;19946;49.306;11.350;2023-03-11T13:43:17;95610.75;;;0.37;100.00
596;BME280;19946;49.306;11.350;2023-03-11T13:46:26;95558.59;;;0.00;100.00
596;BME280;19946;49.306;11.350;2023-03-11T13:52:50;95587.13;;;0.05;100.00
596;BME280;19946;49.306;11.350;2023-03-11T13:55:57;95596.94;;;0.11;100.00
596;BME280;19946;49.306;11.350;2023-03-11T13:59:23;95575.50;;;0.15;100.00
596;BME280;19946;49.306;11.350;2023-03-11T14:02:36;95572.72;;;0.34;100.00
596;BME280;19946;49.306;11.350;2023-03-11T14:05:44;95593.94;;;0.63;100.00
596;BME280;19946;49.306;11.350;2023-03-11T14:08:56;95566.34;;;0.55;100.00
596;BME280;19946;49.306;11.350;2023-03-11T14:12:07;95582.75;;;0.80;100.00
596;BME280;19946;49.306;11.350;2023-03-11T14:15:18;95591.34;;;1.20;100.00
596;BME280;19946;49.306;11.350;2023-03-11T14:18:33;95562.25;;;0.95;100.00
596;BME280;19946;49.306;11.350;2023-03-11T14:21:42;95626.78;;;1.10;100.00
596;BME280;19946;49.306;11.350;2023-03-11T14:24:47;95567.09;;;0.71;100.00
596;BME280;19946;49.306;11.350;2023-03-11T14:27:58;95626.44;;;0.73;100.00
596;BME280;19946;49.306;11.350;2023-03-11T14:31:18;95659.28;;;0.78;100.00
596;BME280;19946;49.306;11.350;2023-03-11T14:34:26;95660.09;;;0.64;100.00
596;BME280;19946;49.306;11.350;2023-03-11T14:40:35;95640.50;;;0.07;100.00
596;BME280;19946;49.306;11.350;2023-03-11T14:43:45;95684.22;;;0.29;100.00
596;BME280;19946;49.306;11.350;2023-03-11T14:46:51;95611.09;;;0.01;100.00
596;BME280;19946;49.306;11.350;2023-03-11T14:49:56;95657.13;;;0.28;100.00
596;BME280;19946;49.306;11.350;2023-03-11T14:53:19;95675.34;;;0.50;100.00
596;BME280;19946;49.306;11.350;2023-03-11T14:56:31;95652.06;;;0.42;100.00
596;BME280;19946;49.306;11.350;2023-03-11T14:59:41;95639.66;;;0.36;100.00
596;BME280;19946;49.306;11.350;2023-03-11T15:03:22;95685.13;;;0.72;100.00
596;BME280;19946;49.306;11.350;2023-03-11T15:06:29;95625.84;;;0.40;100.00
596;BME280;19946;49.306;11.350;2023-03-11T15:09:38;95698.81;;;0.41;100.00
596;BME280;19946;49.306;11.350;2023-03-11T15:12:48;95624.78;;;-0.16;100.00
596;BME280;19946;49.306;11.350;2023-03-11T15:16:00;95695.25;;;0.44;100.00
596;BME280;19946;49.306;11.350;2023-03-11T15:19:30;95638.72;;;0.23;100.00
596;BME280;19946;49.306;11.350;2023-03-11T15:23:03;95665.66;;;0.27;100.00
596;BME280;19946;49.306;11.350;2023-03-11T15:26:38;95690.72;;;0.49;100.00
596;BME280;19946;49.306;11.350;2023-03-11T15:29:50;95648.41;;;0.32;100.00
596;BME280;19946;49.306;11.350;2023-03-11T15:32:54;95621.47;;;-0.02;100.00
596;BME280;19946;49.306;11.350;2023-03-11T15:36:02;95687.75;;;0.26;100.00
596;BME280;19946;49.306;11.350;2023-03-11T15:39:55;95653.59;;;-0.15;100.00
596;BME280;19946;49.306;11.350;2023-03-11T15:43:20;95721.97;;;0.36;100.00
596;BME280;19946;49.306;11.350;2023-03-11T15:46:46;95714.34;;;0.36;100.00
596;BME280;19946;49.306;11.350;2023-03-11T15:49:50;95652.09;;;-0.04;100.00
596;BME280;19946;49.306;11.350;2023-03-11T15:53:07;95641.84;;;-0.02;100.00
596;BME280;19946;49.306;11.350;2023-03-11T15:56:15;95625.84;;;-0.20;100.00
596;BME280;19946;49.306;11.350;2023-03-11T15:59:25;95693.69;;;0.11;100.00
596;BME280;19946;49.306;11.350;2023-03-11T16:02:30;95661.94;;;0.03;100.00
596;BME280;19946;49.306;11.350;2023-03-11T16:05:31;95646.44;;;-0.09;100.00
596;BME280;19946;49.306;11.350;2023-03-11T16:08:37;95720.59;;;0.31;100.00
596;BME280;19946;49.306;11.350;2023-03-11T16:11:43;95718.66;;;0.20;100.00
596;BME280;19946;49.306;11.350;2023-03-11T16:15:33;95707.00;;;0.00;100.00
596;BME280;19946;49.306;11.350;2023-03-11T16:18:48;95734.91;;;0.02;100.00
596;BME280;19946;49.306;11.350;2023-03-11T16:22:16;95731.31;;;0.06;100.00
596;BME280;19946;49.306;11.350;2023-03-11T16:25:33;95663.72;;;-0.45;100.00
596;BME280;19946;49.306;11.350;2023-03-11T16:29:31;95721.63;;;-0.19;100.00
596;BME280;19946;49.306;11.350;2023-03-11T16:33:12;95659.22;;;-0.56;100.00
596;BME280;19946;49.306;11.350;2023-03-11T16:36:40;95743.06;;;-0.07;100.00
596;BME280;19946;49.306;11.350;2023-03-11T16:40:40;95741.50;;;-0.10;100.00
596;BME280;19946;49.306;11.350;2023-03-11T16:44:32;95739.84;;;-0.11;100.00
596;BME280;19946;49.306;11.350;2023-03-11T16:48:05;95686.03;;;-0.50;100.00
596;BME280;19946;49.306;11.350;2023-03-11T16:51:21;95726.72;;;-0.19;100.00
596;BME280;19946;49.306;11.350;2023-03-11T16:55:08;95738.44;;;-0.32;100.00
596;BME280;19946;49.306;11.350;2023-03-11T16:58:49;95758.16;;;-0.20;100.00
596;BME280;19946;49.306;11.350;2023-03-11T17:02:16;95715.81;;;-0.52;100.00
596;BME280;19946;49.306;11.350;2023-03-11T17:05:41;95772.78;;;-0.23;100.00
596;BME280;19946;49.306;11.350;2023-03-11T17:08:48;95722.03;;;-0.58;100.00
596;BME280;19946;49.306;11.350;2023-03-11T17:12:18;95686.06;;;-0.83;100.00
596;BME280;19946;49.306;11.350;2023-03-11T17:15:59;95704.13;;;-0.72;100.00
596;BME280;19946;49.306;11.350;2023-03-11T17:19:16;95745.16;;;-0.62;100.00
596;BME280;19946;49.306;11.350;2023-03-11T17:22:16;95766.66;;;-0.52;100.00
596;BME280;19946;49.306;11.350;2023-03-11T17:25:19;95768.38;;;-0.53;100.00
596;BME280;19946;49.306;11.350;2023-03-11T17:28:20;95722.81;;;-0.73;100.00
596;BME280;19946;49.306;11.350;2023-03-11T17:31:22;95808.28;;;-0.38;100.00
596;BME280;19946;49.306;11.350;2023-03-11T17:34:23;95820.94;;;-0.36;100.00
596;BME280;19946;49.306;11.350;2023-03-11T17:37:25;95791.19;;;-0.51;100.00
596;BME280;19946;49.306;11.350;2023-03-11T17:40:27;95821.63;;;-0.50;100.00
596;BME280;19946;49.306;11.350;2023-03-11T17:43:33;95785.28;;;-0.85;100.00
596;BME280;19946;49.306;11.350;2023-03-11T17:46:33;95790.69;;;-0.91;100.00
596;BME280;19946;49.306;11.350;2023-03-11T17:49:35;95810.75;;;-0.69;100.00
596;BME280;19946;49.306;11.350;2023-03-11T17:52:36;95796.28;;;-0.84;100.00
596;BME280;19946;49.306;11.350;2023-03-11T17:55:38;95765.81;;;-1.01;100.00
596;BME280;19946;49.306;11.350;2023-03-11T17:58:40;95844.06;;;-0.41;100.00
596;BME280;19946;49.306;11.350;2023-03-11T18:01:40;95821.16;;;-0.56;100.00
596;BME280;19946;49.306;11.350;2023-03-11T18:04:41;95847.75;;;-0.63;100.00
596;BME280;19946;49.306;11.350;2023-03-11T18:07:45;95768.00;;;-1.11;100.00
596;BME280;19946;49.306;11.350;2023-03-11T18:10:49;95779.56;;;-1.05;100.00
596;BME280;19946;49.306;11.350;2023-03-11T18:13:50;95863.38;;;-0.54;100.00
596;BME280;19946;49.306;11.350;2023-03-11T18:16:51;95788.91;;;-1.06;100.00
596;BME280;19946;49.306;11.350;2023-03-11T18:19:52;95804.59;;;-0.98;100.00
596;BME280;19946;49.306;11.350;2023-03-11T18:22:53;95848.78;;;-1.00;100.00
596;BME280;19946;49.306;11.350;2023-03-11T18:25:55;95850.31;;;-1.15;100.00
596;BME280;19946;49.306;11.350;2023-03-11T18:28:57;95874.47;;;-1.06;100.00
596;BME280;19946;49.306;11.350;2023-03-11T18:31:57;95828.81;;;-1.25;100.00
596;BME280;19946;49.306;11.350;2023-03-11T18:34:58;95849.56;;;-1.17;100.00
596;BME280;19946;49.306;11.350;2023-03-11T18:37:59;95791.34;;;-1.56;100.00
596;BME280;19946;49.306;11.350;2023-03-11T18:41:01;95798.53;;;-1.64;100.00
596;BME280;19946;49.306;11.350;2023-03-11T18:44:03;95836.03;;;-1.52;100.00
596;BME280;19946;49.306;11.350;2023-03-11T18:47:04;95785.97;;;-1.67;100.00
596;BME280;19946;49.306;11.350;2023-03-11T18:50:05;95879.91;;;-1.31;100.00
596;BME280;19946;49.306;11.350;2023-03-11T18:53:06;95856.97;;;-1.66;100.00
596;BME280;19946;49.306;11.350;2023-03-11T18:56:10;95882.50;;;-1.69;100.00
596;BME280;19946;49.306;11.350;2023-03-11T18:59:12;95876.31;;;-1.82;100.00
596;BME280;19946;49.306;11.350;2023-03-11T19:02:13;95799.47;;;-2.22;100.00
596;BME280;19946;49.306;11.350;2023-03-11T19:05:14;95819.69;;;-2.20;100.00
596;BME280;19946;49.306;11.350;2023-03-11T19:08:15;95859.69;;;-2.06;100.00
596;BME280;19946;49.306;11.350;2023-03-11T19:11:19;95838.34;;;-2.21;100.00
596;BME280;19946;49.306;11.350;2023-03-11T19:14:21;95884.41;;;-2.11;100.00
596;BME280;19946;49.306;11.350;2023-03-11T19:17:23;95814.16;;;-2.67;100.00
596;BME280;19946;49.306;11.350;2023-03-11T19:20:27;95886.81;;;-2.27;100.00
596;BME280;19946;49.306;11.350;2023-03-11T19:23:31;95799.69;;;-2.84;100.00
596;BME280;19946;49.306;11.350;2023-03-11T19:26:36;95879.91;;;-2.44;100.00
596;BME280;19946;49.306;11.350;2023-03-11T19:29:43;95872.56;;;-2.50;100.00
596;BME280;19946;49.306;11.350;2023-03-11T19:32:49;95857.94;;;-2.64;100.00
596;BME280;19946;49.306;11.350;2023-03-11T19:35:54;95903.97;;;-2.34;100.00
596;BME280;19946;49.306;11.350;2023-03-11T19:38:57;95868.78;;;-2.60;100.00
596;BME280;19946;49.306;11.350;2023-03-11T19:41:58;95824.66;;;-2.95;100.00
596;BME280;19946;49.306;11.350;2023-03-11T19:45:04;95879.94;;;-2.64;100.00
596;BME280;19946;49.306;11.350;2023-03-11T19:48:27;95913.63;;;-2.42;100.00
596;BME280;19946;49.306;11.350;2023-03-11T19:52:00;95848.00;;;-2.88;100.00
596;BME280;19946;49.306;11.350;2023-03-11T19:55:09;95851.41;;;-2.89;100.00
596;BME280;19946;49.306;11.350;2023-03-11T19:58:25;95806.53;;;-3.26;100.00
596;BME280;19946;49.306;11.350;2023-03-11T20:02:13;95858.31;;;-3.13;100.00
596;BME280;19946;49.306;11.350;2023-03-11T20:05:26;95878.41;;;-3.09;100.00
596;BME280;19946;49.306;11.350;2023-03-11T20:08:32;95819.72;;;-3.60;100.00
596;BME280;19946;49.306;11.350;2023-03-11T20:11:45;95815.53;;;-3.83;100.00
596;BME280;19946;49.306;11.350;2023-03-11T20:14:54;95919.94;;;-3.35;100.00
596;BME280;19946;49.306;11.350;2023-03-11T20:18:06;95856.44;;;-3.72;100.00
596;BME280;19946;49.306;11.350;2023-03-11T20:21:12;95900.81;;;-3.42;100.00
596;BME280;19946;49.306;11.350;2023-03-11T20:24:44;95865.56;;;-3.68;100.00
596;BME280;19946;49.306;11.350;2023-03-11T20:28:20;95941.16;;;-3.37;100.00
596;BME280;19946;49.306;11.350;2023-03-11T20:31:49;95861.06;;;-3.83;100.00
596;BME280;19946;49.306;11.350;2023-03-11T20:35:11;95925.66;;;-3.51;100.00
596;BME280;19946;49.306;11.350;2023-03-11T20:38:20;95842.41;;;-4.02;100.00
596;BME280;19946;49.306;11.350;2023-03-11T20:41:31;95917.47;;;-3.58;100.00
596;BME280;19946;49.306;11.350;2023-03-11T20:44:43;95939.03;;;-3.48;100.00
596;BME280;19946;49.306;11.350;2023-03-11T20:48:15;95855.50;;;-3.91;100.00
596;BME280;19946;49.306;11.350;2023-03-11T20:51:38;95945.19;;;-3.33;100.00
596;BME280;19946;49.306;11.350;2023-03-11T20:55:17;95837.88;;;-3.94;100.00
596;BME280;19946;49.306;11.350;2023-03-11T20:58:34;95840.38;;;-3.93;100.00
596;BME280;19946;49.306;11.350;2023-03-11T21:01:36;95947.59;;;-3.30;100.00
596;BME280;19946;49.306;11.350;2023-03-11T21:04:55;95893.81;;;-3.57;100.00
596;BME280;19946;49.306;11.350;2023-03-11T21:08:39;95946.38;;;-3.20;100.00
596;BME280;19946;49.306;11.350;2023-03-11T21:11:50;95948.03;;;-3.19;100.00
596;BME280;19946;49.306;11.350;2023-03-11T21:14:52;95939.13;;;-3.07;100.00
596;BME280;19946;49.306;11.350;2023-03-11T21:18:04;95871.31;;;-3.43;100.00
596;BME280;19946;49.306;11.350;2023-03-11T21:21:13;95857.56;;;-3.57;100.00
596;BME280;19946;49.306;11.350;2023-03-11T21:24:50;95858.19;;;-3.52;100.00
596;BME280;19946;49.306;11.350;2023-03-11T21:28:07;95946.47;;;-3.23;100.00
596;BME280;19946;49.306;11.350;2023-03-11T21:31:10;95913.81;;;-3.51;100.00
596;BME280;19946;49.306;11.350;2023-03-11T21:34:14;95941.25;;;-3.40;100.00
596;BME280;19946;49.306;11.350;2023-03-11T21:37:20;95835.03;;;-4.09;100.00
596;BME280;19946;49.306;11.350;2023-03-11T21:40:25;95950.03;;;-3.49;100.00
596;BME280;19946;49.306;11.350;2023-03-11T21:44:03;95954.84;;;-3.43;100.00
596;BME280;19946;49.306;11.350;2023-03-11T21:47:28;95857.22;;;-4.15;100.00
596;BME280;19946;49.306;11.350;2023-03-11T21:50:57;95907.34;;;-3.80;100.00
596;BME280;19946;49.306;11.350;2023-03-11T21:55:32;95925.34;;;-3.89;100.00
596;BME280;19946;49.306;11.350;2023-03-11T21:59:35;95912.94;;;-3.95;100.00
596;BME280;19946;49.306;11.350;2023-03-11T22:03:08;95930.75;;;-3.75;100.00
596;BME280;19946;49.306;11.350;2023-03-11T22:06:49;95913.81;;;-3.96;100.00
596;BME280;19946;49.306;11.350;2023-03-11T22:10:37;95968.28;;;-3.64;100.00
596;BME280;19946;49.306;11.350;2023-03-11T22:14:46;95909.25;;;-4.10;100.00
596;BME280;19946;49.306;11.350;2023-03-11T22:18:47;95877.00;;;-4.26;100.00
596;BME280;19946;49.306;11.350;2023-03-11T22:22:50;95964.06;;;-3.63;100.00
596;BME280;19946;49.306;11.350;2023-03-11T22:26:52;95959.88;;;-3.64;100.00
596;BME280;19946;49.306;11.350;2023-03-11T22:30:33;95862.84;;;-4.32;100.00
596;BME280;19946;49.306;11.350;2023-03-11T22:34:00;95979.13;;;-3.60;100.00
596;BME280;19946;49.306;11.350;2023-03-11T22:37:59;95938.47;;;-4.01;100.00
596;BME280;19946;49.306;11.350;2023-03-11T22:41:48;95993.13;;;-3.74;100.00
596;BME280;19946;49.306;11.350;2023-03-11T22:45:02;95989.81;;;-3.76;100.00
596;BME280;19946;49.306;11.350;2023-03-11T22:48:56;95996.69;;;-3.79;100.00
596;BME280;19946;49.306;11.350;2023-03-11T22:52:11;96001.59;;;-3.99;100.00
596;BME280;19946;49.306;11.350;2023-03-11T22:55:43;95948.41;;;-4.45;100.00
596;BME280;19946;49.306;11.350;2023-03-11T22:59:34;95992.41;;;-4.25;100.00
596;BME280;19946;49.306;11.350;2023-03-11T23:02:56;95976.97;;;-4.43;100.00
596;BME280;19946;49.306;11.350;2023-03-11T23:06:23;95885.47;;;-5.00;100.00
596;BME280;19946;49.306;11.350;2023-03-11T23:09:34;95994.56;;;-4.39;100.00
596;BME280;19946;49.306;11.350;2023-03-11T23:12:40;95996.53;;;-4.23;100.00
596;BME280;19946;49.306;11.350;2023-03-11T23:15:55;96013.28;;;-4.20;100.00
596;BME280;19946;49.306;11.350;2023-03-11T23:19:06;95909.22;;;-4.81;100.00
596;BME280;19946;49.306;11.350;2023-03-11T23:22:10;95933.06;;;-4.65;100.00
596;BME280;19946;49.306;11.350;2023-03-11T23:25:16;96009.31;;;-4.02;100.00
596;BME280;19946;49.306;11.350;2023-03-11T23:28:27;95888.97;;;-4.80;100.00
596;BME280;19946;49.306;11.350;2023-03-11T23:31:31;96000.28;;;-4.10;100.00
596;BME280;19946;49.306;11.350;2023-03-11T23:34:39;95961.38;;;-4.30;100.00
596;BME280;19946;49.306;11.350;2023-03-11T23:37:40;96012.09;;;-4.10;100.00
596;BME280;19946;49.306;11.350;2023-03-11T23:40:42;95937.69;;;-4.51;100.00
596;BME280;19946;49.306;11.350;2023-03-11T23:44:08;95938.41;;;-4.48;100.00
596;BME280;19946;49.306;11.350;2023-03-11T23:47:29;96009.88;;;-4.19;100.00
596;BME280;19946;49.306;11.350;2023-03-11T23:50:35;95896.94;;;-4.92;100.00
596;BME280;19946;49.306;11.350;2023-03-11T23:53:43;95958.16;;;-4.59;100.00
596;BME280;19946;49.306;11.350;2023-03-11T23:56:45;95999.06;;;-4.23;100.00
596;BME280;19946;49.306;11.350;2023-03-11T23:59:49;95968.41;;;-4.38;100.00
